createdAt,value
2022-08-09T00:00:00.146Z,1.20
2022-08-09T00:00:59.519Z,1.20
2022-08-09T00:06:17.389Z,1.20
2022-08-09T00:06:27.578Z,0.90
2022-08-09T00:07:16.878Z,1.20
2022-08-09T00:08:09.674Z,1.40
2022-08-09T00:09:09.578Z,0.90
2022-08-09T00:10:21.044Z,1.00
2022-08-09T00:11:24.512Z,1.00
2022-08-09T00:12:34.666Z,1.20
2022-08-09T00:22:20.610Z,1.20
2022-08-09T00:23:57.426Z,1.00
2022-08-09T00:24:20.969Z,1.50
2022-08-09T00:25:32.700Z,1.00
2022-08-09T00:26:30.157Z,1.10
2022-08-09T00:27:22.913Z,1.20
2022-08-09T00:31:59.042Z,1.00
2022-08-09T00:36:08.467Z,1.10
2022-08-09T00:37:09.380Z,1.10
2022-08-09T00:38:09.391Z,1.10
2022-08-09T00:40:08.877Z,1.20
2022-08-09T00:40:17.371Z,1.00
2022-08-09T00:41:09.384Z,1.20
2022-08-09T00:44:20.032Z,1.10
2022-08-09T00:44:31.973Z,0.70
2022-08-09T00:45:22.027Z,1.20
2022-08-09T00:46:45.344Z,1.30
2022-08-09T00:47:24.977Z,1.20
2022-08-09T00:48:21.999Z,1.10
2022-08-09T00:49:25.684Z,1.20
2022-08-09T00:50:42.556Z,1.00
2022-08-09T00:51:22.017Z,1.10
2022-08-09T00:52:21.995Z,1.20
2022-08-09T00:53:24.038Z,1.10
2022-08-09T00:54:21.943Z,1.20
2022-08-09T00:56:03.305Z,1.40
2022-08-09T00:56:21.949Z,0.90
2022-08-09T00:57:24.723Z,0.90
2022-08-09T01:02:48.638Z,1.10
2022-08-09T01:02:55.032Z,1.20
2022-08-09T01:03:54.933Z,1.40
2022-08-09T01:06:17.783Z,1.30
2022-08-09T01:07:08.889Z,1.10
2022-08-09T01:14:03.920Z,1.60
2022-08-09T01:15:10.107Z,1.50
2022-08-09T01:16:06.260Z,1.30
2022-08-09T01:17:04.633Z,1.40
2022-08-09T01:18:14.199Z,1.10
2022-08-09T01:19:05.172Z,1.30
2022-08-09T01:20:04.996Z,1.20
2022-08-09T01:21:05.479Z,1.10
2022-08-09T01:22:04.502Z,1.70
2022-08-09T01:23:04.719Z,1.30
2022-08-09T01:24:05.229Z,1.10
2022-08-09T01:25:19.393Z,1.20
2022-08-09T01:26:04.516Z,1.10
2022-08-09T01:27:04.506Z,1.40
2022-08-09T01:28:04.727Z,1.50
2022-08-09T01:29:04.702Z,1.00
2022-08-09T01:30:04.454Z,1.90
2022-08-09T01:31:06.107Z,1.60
2022-08-09T01:32:32.552Z,1.10
2022-08-09T01:33:04.688Z,0.90
2022-08-09T01:34:03.396Z,1.50
2022-08-09T01:35:17.935Z,1.40
2022-08-09T01:36:04.435Z,1.30
2022-08-09T01:37:04.378Z,1.30
2022-08-09T01:38:08.007Z,1.20
2022-08-09T01:39:04.451Z,1.40
2022-08-09T01:40:04.353Z,1.30
2022-08-09T01:41:05.640Z,0.70
2022-08-09T01:42:07.987Z,1.40
2022-08-09T01:43:04.316Z,1.30
2022-08-09T01:44:04.300Z,1.10
2022-08-09T01:45:04.318Z,1.50
2022-08-09T01:46:04.300Z,1.30
2022-08-09T01:47:04.514Z,1.10
2022-08-09T01:48:05.919Z,1.60
2022-08-09T01:49:10.592Z,1.40
2022-08-09T01:50:06.487Z,1.40
2022-08-09T01:51:04.208Z,1.20
2022-08-09T01:52:11.055Z,0.80
2022-08-09T01:53:19.318Z,1.10
2022-08-09T01:54:04.366Z,1.30
2022-08-09T01:55:04.164Z,1.20
2022-08-09T01:56:04.478Z,1.20
2022-08-09T01:57:05.146Z,1.40
2022-08-09T01:58:11.975Z,1.20
2022-08-09T01:59:05.020Z,1.40
2022-08-09T02:00:08.965Z,1.60
2022-08-09T02:01:04.196Z,1.00
2022-08-09T02:02:04.389Z,1.60
2022-08-09T02:03:13.753Z,1.40
2022-08-09T02:04:05.798Z,1.60
2022-08-09T02:05:05.538Z,1.70
2022-08-09T02:06:06.842Z,1.20
2022-08-09T02:07:04.825Z,1.20
2022-08-09T02:08:40.463Z,1.40
2022-08-09T02:09:11.552Z,1.50
2022-08-09T02:10:04.452Z,1.30
2022-08-09T02:11:04.020Z,1.40
2022-08-09T02:12:04.030Z,1.40
2022-08-09T02:13:04.311Z,1.50
2022-08-09T02:14:07.259Z,1.60
2022-08-09T02:15:06.335Z,1.20
2022-08-09T02:16:04.000Z,1.20
2022-08-09T02:17:15.434Z,1.40
2022-08-09T02:18:09.854Z,1.30
2022-08-09T02:19:04.219Z,1.40
2022-08-09T02:20:04.552Z,1.70
2022-08-09T02:21:04.138Z,1.50
2022-08-09T02:22:03.937Z,1.50
2022-08-09T02:23:12.878Z,1.40
2022-08-09T02:24:04.046Z,1.50
2022-08-09T02:25:06.671Z,1.40
2022-08-09T02:26:04.221Z,1.30
2022-08-09T02:27:06.963Z,1.60
2022-08-09T02:28:11.902Z,1.70
2022-08-09T02:29:04.289Z,1.10
2022-08-09T02:30:07.289Z,1.50
2022-08-09T02:31:05.814Z,1.70
2022-08-09T02:32:04.558Z,1.50
2022-08-09T02:33:07.776Z,1.30
2022-08-09T02:34:06.971Z,1.90
2022-08-09T02:35:10.223Z,1.50
2022-08-09T02:36:04.535Z,1.40
2022-08-09T02:37:03.793Z,1.50
2022-08-09T02:38:03.771Z,1.70
2022-08-09T02:39:14.094Z,1.40
2022-08-09T02:44:49.092Z,1.80
2022-08-09T02:58:32.711Z,1.60
2022-08-09T02:59:17.296Z,1.60
2022-08-09T03:00:25.012Z,1.50
2022-08-09T03:01:21.905Z,1.80
2022-08-09T03:02:16.996Z,1.30
2022-08-09T03:03:12.445Z,1.20
2022-08-09T03:04:19.254Z,1.40
2022-08-09T03:05:16.662Z,1.40
2022-08-09T03:46:29.192Z,1.40
2022-08-09T03:47:27.249Z,1.30
2022-08-09T03:48:30.647Z,1.50
2022-08-09T03:49:32.866Z,1.30
2022-08-09T03:50:27.902Z,1.60
2022-08-09T03:51:56.287Z,1.80
2022-08-09T03:52:27.994Z,1.50
2022-08-09T03:53:32.308Z,1.40
2022-08-09T03:54:29.503Z,1.60
2022-08-09T03:55:27.131Z,1.60
2022-08-09T03:56:27.148Z,1.70
2022-08-09T03:57:27.293Z,1.70
2022-08-09T03:58:27.118Z,1.30
2022-08-09T03:59:53.553Z,1.70
2022-08-09T04:00:27.337Z,1.40
2022-08-09T04:01:27.079Z,1.60
2022-08-09T04:02:28.201Z,1.50
2022-08-09T04:03:46.390Z,1.60
2022-08-09T04:04:27.050Z,1.30
2022-08-09T04:05:28.077Z,1.60
2022-08-09T04:06:27.050Z,1.80
2022-08-09T04:07:46.991Z,1.80
2022-08-09T04:08:28.817Z,1.70
2022-08-09T04:09:47.460Z,1.70
2022-08-09T04:10:29.745Z,1.50
2022-08-09T04:11:26.931Z,1.70
2022-08-09T04:12:30.996Z,1.80
2022-08-09T04:13:26.925Z,1.70
2022-08-09T04:14:52.914Z,2.00
2022-08-09T04:15:38.768Z,2.00
2022-08-09T05:08:35.260Z,1.80
2022-08-09T05:09:48.808Z,1.80
2022-08-09T05:11:07.728Z,1.70
2022-08-09T05:11:35.522Z,1.90
2022-08-09T05:12:33.495Z,2.00
2022-08-09T05:13:33.899Z,1.70
2022-08-09T05:23:54.081Z,1.30
2022-08-09T05:24:06.088Z,1.40
2022-08-09T05:24:49.383Z,1.70
2022-08-09T05:25:50.888Z,1.60
2022-08-09T05:26:48.583Z,1.80
2022-08-09T05:27:48.506Z,1.60
2022-08-09T05:28:48.705Z,1.90
2022-08-09T05:30:19.958Z,1.90
2022-08-09T05:30:48.522Z,1.50
2022-08-09T05:31:56.301Z,1.90
2022-08-09T05:32:50.852Z,1.90
2022-08-09T05:33:48.461Z,1.50
2022-08-09T05:34:48.425Z,1.90
2022-08-09T05:35:50.027Z,1.80
2022-08-09T05:36:48.628Z,1.60
2022-08-09T05:37:50.096Z,1.70
2022-08-09T05:38:49.179Z,2.10
2022-08-09T05:39:49.772Z,1.80
2022-08-09T05:40:50.619Z,1.60
2022-08-09T05:41:48.384Z,1.60
2022-08-09T05:42:48.377Z,1.70
2022-08-09T05:43:49.096Z,1.70
2022-08-09T05:44:50.895Z,1.80
2022-08-09T05:45:55.852Z,1.60
2022-08-09T05:46:48.314Z,1.80
2022-08-09T05:47:52.290Z,1.70
2022-08-09T05:48:59.070Z,1.90
2022-08-09T05:50:30.096Z,1.90
2022-08-09T05:54:17.803Z,1.40
2022-08-09T05:59:07.530Z,1.70
2022-08-09T05:59:49.411Z,2.10
2022-08-09T06:00:49.424Z,1.70
2022-08-09T06:01:49.346Z,1.70
2022-08-09T06:02:57.379Z,1.80
2022-08-09T06:03:58.043Z,1.60
2022-08-09T06:04:49.739Z,1.80
2022-08-09T06:05:57.520Z,1.60
2022-08-09T06:06:49.707Z,1.80
2022-08-09T06:08:07.867Z,1.80
2022-08-09T06:08:52.747Z,1.60
2022-08-09T06:10:01.967Z,1.70
2022-08-09T06:10:49.752Z,1.60
2022-08-09T06:11:56.768Z,1.60
2022-08-09T06:12:57.786Z,2.00
2022-08-09T06:13:49.238Z,2.00
2022-08-09T06:14:49.260Z,1.70
2022-08-09T06:15:51.443Z,1.40
2022-08-09T06:16:52.471Z,1.80
2022-08-09T06:17:49.175Z,1.70
2022-08-09T06:18:49.175Z,1.70
2022-08-09T06:19:49.405Z,1.60
2022-08-09T06:20:54.243Z,1.80
2022-08-09T06:21:51.386Z,1.70
2022-08-09T06:24:02.682Z,1.60
2022-08-09T06:25:00.086Z,2.20
2022-08-09T06:26:00.125Z,1.80
2022-08-09T06:27:00.072Z,1.40
2022-08-09T06:28:00.097Z,1.60
2022-08-09T06:29:05.028Z,1.60
2022-08-09T06:30:08.677Z,1.50
2022-08-09T06:31:00.064Z,1.50
2022-08-09T06:32:17.269Z,1.50
2022-08-09T06:33:39.648Z,1.80
2022-08-09T06:34:00.297Z,1.50
2022-08-09T06:34:59.975Z,1.40
2022-08-09T06:36:00.030Z,1.50
2022-08-09T06:37:00.233Z,1.40
2022-08-09T06:38:05.811Z,1.20
2022-08-09T06:39:02.712Z,2.60
2022-08-09T06:40:03.510Z,1.80
2022-08-09T06:40:59.947Z,1.30
2022-08-09T06:42:08.669Z,1.60
2022-08-09T06:42:59.928Z,1.50
2022-08-09T06:43:59.937Z,1.70
2022-08-09T06:45:00.289Z,1.30
2022-08-09T06:46:06.745Z,1.30
2022-08-09T06:47:00.290Z,1.50
2022-08-09T06:48:01.356Z,1.60
2022-08-09T06:49:00.450Z,1.50
2022-08-09T06:50:13.742Z,1.50
2022-08-09T06:50:59.857Z,1.30
2022-08-09T06:51:59.836Z,1.10
2022-08-09T06:53:00.570Z,1.60
2022-08-09T06:54:00.943Z,1.30
2022-08-09T06:55:12.758Z,1.30
2022-08-09T06:56:02.807Z,1.40
2022-08-09T06:56:59.773Z,1.20
2022-08-09T06:58:03.198Z,1.30
2022-08-09T07:00:50.846Z,1.30
2022-08-09T07:01:01.484Z,1.30
2022-08-09T07:01:06.403Z,1.20
2022-08-09T07:02:06.474Z,1.10
2022-08-09T07:03:07.168Z,1.30
2022-08-09T07:04:06.666Z,1.20
2022-08-09T07:05:06.384Z,1.30
2022-08-09T07:06:06.365Z,1.30
2022-08-09T07:07:06.344Z,1.30
2022-08-09T07:08:06.414Z,1.60
2022-08-09T07:09:06.327Z,1.10
2022-08-09T07:10:17.997Z,1.10
2022-08-09T07:11:07.013Z,1.40
2022-08-09T07:12:06.299Z,1.20
2022-08-09T07:13:28.378Z,1.40
2022-08-09T07:14:06.512Z,1.40
2022-08-09T07:16:34.899Z,1.10
2022-08-09T07:16:55.336Z,1.30
2022-08-09T07:17:08.255Z,1.40
2022-08-09T07:18:06.238Z,1.40
2022-08-09T07:19:06.230Z,0.80
2022-08-09T07:20:06.207Z,1.20
2022-08-09T07:21:08.044Z,0.90
2022-08-09T07:22:06.207Z,0.90
2022-08-09T07:23:18.754Z,1.20
2022-08-09T07:24:06.247Z,1.40
2022-08-09T07:25:09.589Z,1.20
2022-08-09T07:26:06.173Z,1.00
2022-08-09T07:27:10.784Z,1.10
2022-08-09T07:28:06.119Z,1.10
2022-08-09T07:29:12.253Z,1.00
2022-08-09T07:30:06.127Z,1.20
2022-08-09T07:31:38.323Z,1.20
2022-08-09T07:32:06.104Z,1.30
2022-08-09T07:33:12.380Z,1.20
2022-08-09T07:34:06.060Z,1.00
2022-08-09T07:35:08.043Z,1.40
2022-08-09T07:36:06.044Z,0.90
2022-08-09T07:37:06.037Z,1.10
2022-08-09T07:38:06.025Z,0.80
2022-08-09T07:39:06.089Z,1.10
2022-08-09T07:40:06.069Z,1.30
2022-08-09T07:41:12.043Z,0.90
2022-08-09T07:42:06.426Z,1.80
2022-08-09T07:43:07.067Z,1.00
2022-08-09T07:44:05.960Z,1.00
2022-08-09T07:45:06.441Z,0.80
2022-08-09T07:46:05.955Z,1.30
2022-08-09T07:47:05.906Z,1.10
2022-08-09T07:48:05.917Z,1.20
2022-08-09T07:49:05.928Z,1.20
2022-08-09T07:50:08.556Z,0.90
2022-08-09T07:52:02.806Z,1.00
2022-08-09T07:52:17.003Z,1.20
2022-08-09T07:53:05.861Z,1.20
2022-08-09T07:54:07.493Z,1.10
2022-08-09T07:55:09.431Z,1.30
2022-08-09T07:56:06.759Z,1.30
2022-08-09T07:57:05.792Z,0.90
2022-08-09T07:58:05.819Z,0.90
2022-08-09T07:59:12.642Z,1.00
2022-08-09T08:00:08.959Z,1.10
2022-08-09T08:01:06.350Z,1.10
2022-08-09T08:03:15.899Z,1.00
2022-08-09T08:04:16.795Z,0.80
2022-08-09T08:05:18.658Z,1.00
2022-08-09T08:06:33.041Z,0.90
2022-08-09T08:08:44.413Z,0.70
2022-08-09T08:09:07.732Z,0.90
2022-08-09T08:09:51.655Z,0.90
2022-08-09T08:10:18.376Z,0.80
2022-08-09T08:12:10.077Z,1.00
2022-08-09T08:12:53.489Z,0.80
2022-08-09T08:13:17.130Z,0.90
2022-08-09T08:14:17.145Z,1.00
2022-08-09T08:15:17.587Z,0.90
2022-08-09T08:16:29.879Z,0.70
2022-08-09T08:17:28.898Z,0.80
2022-08-09T08:18:18.375Z,0.90
2022-08-09T08:19:17.376Z,0.80
2022-08-09T08:20:17.363Z,1.10
2022-08-09T08:21:17.106Z,0.90
2022-08-09T08:22:17.119Z,0.80
2022-08-09T08:23:17.817Z,0.60
2022-08-09T08:24:17.044Z,0.80
2022-08-09T08:25:18.015Z,0.90
2022-08-09T08:26:18.656Z,0.80
2022-08-09T08:27:18.719Z,1.00
2022-08-09T08:28:18.199Z,0.90
2022-08-09T08:29:20.178Z,0.80
2022-08-09T08:31:17.262Z,0.90
2022-08-09T08:31:24.653Z,0.70
2022-08-09T08:32:28.708Z,0.90
2022-08-09T08:34:36.029Z,0.90
2022-08-09T08:35:58.153Z,0.70
2022-08-09T08:36:33.387Z,0.90
2022-08-09T08:39:43.712Z,0.60
2022-08-09T08:39:54.834Z,0.60
2022-08-09T08:40:49.720Z,0.80
2022-08-09T08:41:51.860Z,0.80
2022-08-09T08:42:49.422Z,0.60
2022-08-09T08:43:49.419Z,1.00
2022-08-09T08:44:49.380Z,0.70
2022-08-09T08:45:51.729Z,0.70
2022-08-09T08:47:03.365Z,0.60
2022-08-09T08:47:49.392Z,0.60
2022-08-09T08:48:51.934Z,0.50
2022-08-09T08:49:49.563Z,0.70
2022-08-09T08:50:51.987Z,1.00
2022-08-09T08:52:10.427Z,0.40
2022-08-09T08:52:58.521Z,0.90
2022-08-09T08:54:02.952Z,0.50
2022-08-09T08:54:50.549Z,0.70
2022-08-09T08:55:52.614Z,0.90
2022-08-09T08:57:00.733Z,1.00
2022-08-09T08:57:56.291Z,0.60
2022-08-09T08:58:49.250Z,0.80
2022-08-09T08:59:49.277Z,0.60
2022-08-09T09:00:54.274Z,0.80
2022-08-09T09:01:53.001Z,0.60
2022-08-09T09:02:49.942Z,0.80
2022-08-09T09:04:52.760Z,0.70
2022-08-09T09:07:36.756Z,0.70
2022-08-09T09:08:38.056Z,0.70
2022-08-09T09:09:57.919Z,0.70
2022-08-09T09:10:35.633Z,0.90
2022-08-09T09:11:38.364Z,0.70
2022-08-09T09:12:35.408Z,0.50
2022-08-09T09:13:54.836Z,0.90
2022-08-09T09:14:35.008Z,0.70
2022-08-09T09:15:35.010Z,1.00
2022-08-09T09:16:35.808Z,1.10
2022-08-09T09:17:48.551Z,1.00
2022-08-09T09:18:35.074Z,0.80
2022-08-09T09:19:41.415Z,0.60
2022-08-09T09:20:35.410Z,0.80
2022-08-09T09:21:43.191Z,1.00
2022-08-09T09:22:36.439Z,0.90
2022-08-09T09:23:38.028Z,0.90
2022-08-09T09:24:34.940Z,0.80
2022-08-09T09:26:01.063Z,0.80
2022-08-09T09:26:34.912Z,0.90
2022-08-09T09:28:05.331Z,0.80
2022-08-09T09:28:39.113Z,0.90
2022-08-09T09:30:08.566Z,0.90
2022-08-09T09:30:42.044Z,1.00
2022-08-09T09:32:03.848Z,0.90
2022-08-09T09:32:35.737Z,0.90
2022-08-09T09:33:44.358Z,0.80
2022-08-09T09:34:34.825Z,1.00
2022-08-09T09:35:34.813Z,0.80
2022-08-09T09:36:34.852Z,1.00
2022-08-09T09:37:34.796Z,0.80
2022-08-09T09:38:36.541Z,0.80
2022-08-09T09:41:18.181Z,1.00
2022-08-09T09:41:23.020Z,0.90
2022-08-09T09:42:29.847Z,0.70
2022-08-09T09:43:23.027Z,0.80
2022-08-09T09:44:25.851Z,0.90
2022-08-09T09:45:26.493Z,0.80
2022-08-09T09:47:22.998Z,0.70
2022-08-09T09:48:22.969Z,1.10
2022-08-09T09:49:31.602Z,0.90
2022-08-09T09:50:23.390Z,1.20
2022-08-09T09:51:37.937Z,0.90
2022-08-09T09:52:36.798Z,1.10
2022-08-09T09:53:34.379Z,0.90
2022-08-09T09:54:22.954Z,1.40
2022-08-09T09:55:28.840Z,1.00
2022-08-09T09:56:31.448Z,0.90
2022-08-09T09:58:00.542Z,0.70
2022-08-09T10:01:40.643Z,0.80
2022-08-09T10:01:47.233Z,0.90
2022-08-09T10:02:45.735Z,0.90
2022-08-09T10:03:57.423Z,0.90
2022-08-09T10:04:45.761Z,0.80
2022-08-09T10:06:03.924Z,0.90
2022-08-09T10:06:47.022Z,0.70
2022-08-09T10:08:10.918Z,0.90
2022-08-09T10:08:54.764Z,1.10
2022-08-09T10:09:45.972Z,0.50
2022-08-09T10:10:45.654Z,0.70
2022-08-09T10:12:00.042Z,0.80
2022-08-09T10:12:52.123Z,0.70
2022-08-09T10:13:45.701Z,0.60
2022-08-09T10:14:48.657Z,0.60
2022-08-09T10:16:08.782Z,0.70
2022-08-09T10:17:21.733Z,0.60
2022-08-09T10:17:55.358Z,0.60
2022-08-09T10:18:51.248Z,0.60
2022-08-09T10:19:45.820Z,1.00
2022-08-09T10:20:45.714Z,0.90
2022-08-09T10:21:45.966Z,0.90
2022-08-09T10:22:46.595Z,0.80
2022-08-09T10:23:45.564Z,0.80
2022-08-09T10:24:47.095Z,0.80
2022-08-09T10:26:07.541Z,0.50
2022-08-09T10:26:46.714Z,0.80
2022-08-09T10:27:57.132Z,0.50
2022-08-09T10:29:22.638Z,0.60
2022-08-09T10:31:38.161Z,0.80
2022-08-09T10:34:50.988Z,0.50
2022-08-09T10:35:51.878Z,0.60
2022-08-09T10:36:51.849Z,0.40
2022-08-09T10:38:54.770Z,0.40
2022-08-09T10:39:01.888Z,0.70
2022-08-09T10:39:52.036Z,0.90
2022-08-09T10:40:52.846Z,0.60
2022-08-09T10:41:51.776Z,0.60
2022-08-09T10:42:52.826Z,0.70
2022-08-09T10:43:59.273Z,0.70
2022-08-09T10:44:51.752Z,0.90
2022-08-09T10:45:59.859Z,0.70
2022-08-09T10:46:57.627Z,0.70
2022-08-09T10:48:19.402Z,0.60
2022-08-09T10:48:52.419Z,0.80
2022-08-09T10:49:54.310Z,0.60
2022-08-09T10:50:52.424Z,0.60
2022-08-09T10:51:53.089Z,0.70
2022-08-09T10:52:51.722Z,0.60
2022-08-09T10:53:54.607Z,0.60
2022-08-09T10:54:53.432Z,0.70
2022-08-09T10:55:58.147Z,0.70
2022-08-09T10:56:51.920Z,0.80
2022-08-09T10:57:56.092Z,0.80
2022-08-09T10:58:51.615Z,1.00
2022-08-09T10:59:55.620Z,0.70
2022-08-09T11:03:02.787Z,0.80
2022-08-09T11:16:59.472Z,0.30
2022-08-09T11:17:42.042Z,0.50
2022-08-09T11:18:38.531Z,0.60
2022-08-09T11:20:53.876Z,0.70
2022-08-09T11:26:00.352Z,0.60
2022-08-09T11:26:35.609Z,0.70
2022-08-09T11:28:08.444Z,0.70
2022-08-09T11:28:38.287Z,0.80
2022-08-09T11:30:04.738Z,0.60
2022-08-09T11:31:50.609Z,0.90
2022-08-09T11:44:04.651Z,0.50
2022-08-09T11:44:51.552Z,0.50
2022-08-09T11:53:58.692Z,0.50
2022-08-09T11:54:28.965Z,0.60
2022-08-09T11:55:16.466Z,0.70
2022-08-09T11:58:00.892Z,0.90
2022-08-09T12:09:19.674Z,0.60
2022-08-09T12:10:31.866Z,0.50
2022-08-09T12:11:28.408Z,0.60
2022-08-09T12:12:12.891Z,0.60
2022-08-09T12:14:10.712Z,1.20
2022-08-09T12:18:05.389Z,1.00
2022-08-09T12:18:30.121Z,0.80
2022-08-09T12:19:27.154Z,0.60
2022-08-09T12:20:27.815Z,0.80
2022-08-09T12:21:32.501Z,0.60
2022-08-09T12:22:26.947Z,0.50
2022-08-09T12:23:47.632Z,0.80
2022-08-09T12:24:28.068Z,0.60
2022-08-09T12:25:37.110Z,0.60
2022-08-09T12:26:26.888Z,0.70
2022-08-09T12:29:12.462Z,0.60
2022-08-09T12:29:33.894Z,0.90
2022-08-09T12:30:01.595Z,0.50
2022-08-09T12:30:40.640Z,0.90
2022-08-09T12:31:59.313Z,0.70
2022-08-09T12:32:36.490Z,0.70
2022-08-09T12:33:59.407Z,0.60
2022-08-09T12:34:36.529Z,0.60
2022-08-09T12:35:40.925Z,0.60
2022-08-09T12:36:36.461Z,0.60
2022-08-09T12:37:44.184Z,0.50
2022-08-09T12:38:38.357Z,0.60
2022-08-09T12:39:37.671Z,0.50
2022-08-09T12:40:36.418Z,0.80
2022-08-09T12:41:40.054Z,0.60
2022-08-09T12:42:36.404Z,0.80
2022-08-09T12:44:06.945Z,0.90
2022-08-09T12:44:37.472Z,0.40
2022-08-09T12:45:38.190Z,0.70
2022-08-09T12:46:36.343Z,0.60
2022-08-09T12:47:41.235Z,0.60
2022-08-09T12:48:37.273Z,0.80
2022-08-09T12:49:36.317Z,0.80
2022-08-09T12:50:36.561Z,0.80
2022-08-09T12:52:00.110Z,0.70
2022-08-09T12:52:42.845Z,0.40
2022-08-09T12:53:38.427Z,0.60
2022-08-09T12:54:36.256Z,0.60
2022-08-09T12:56:15.246Z,0.70
2022-08-09T12:56:48.160Z,0.60
2022-08-09T12:57:36.257Z,0.60
2022-08-09T12:58:42.947Z,0.80
2022-08-09T12:59:57.405Z,0.60
2022-08-09T13:00:36.221Z,0.40
2022-08-09T13:01:38.585Z,0.70
2022-08-09T13:02:36.563Z,0.90
2022-08-09T13:12:02.205Z,0.80
2022-08-09T13:13:10.994Z,0.50
2022-08-09T13:14:43.612Z,0.70
2022-08-09T13:14:54.941Z,0.50
2022-08-09T13:15:52.521Z,0.40
2022-08-09T13:16:51.938Z,0.60
2022-08-09T13:18:06.115Z,0.60
2022-08-09T13:20:27.061Z,0.60
2022-08-09T13:21:04.261Z,0.60
2022-08-09T13:23:01.468Z,0.70
2022-08-09T13:26:44.315Z,0.50
2022-08-09T13:27:39.943Z,0.70
2022-08-09T13:28:39.578Z,0.40
2022-08-09T13:30:02.955Z,0.60
2022-08-09T13:32:12.335Z,0.50
2022-08-09T13:32:25.499Z,0.40
2022-08-09T13:34:41.055Z,0.70
2022-08-09T13:34:46.237Z,0.50
2022-08-09T13:36:38.655Z,0.70
2022-08-09T13:36:47.403Z,0.60
2022-08-09T13:37:52.129Z,0.70
2022-08-09T13:38:55.648Z,0.50
2022-08-09T13:41:46.013Z,0.40
2022-08-09T13:42:04.357Z,0.50
2022-08-09T13:42:11.913Z,0.40
2022-08-09T13:43:09.894Z,0.70
2022-08-09T13:44:09.346Z,0.60
2022-08-09T13:45:12.521Z,0.60
2022-08-09T13:47:16.357Z,0.40
2022-08-09T13:49:56.134Z,0.60
2022-08-09T13:56:29.039Z,0.60
2022-08-09T13:57:58.366Z,0.40
2022-08-09T13:59:18.914Z,0.50
2022-08-09T14:00:15.905Z,0.90
2022-08-09T14:01:56.469Z,0.50
2022-08-09T14:02:16.858Z,0.60
2022-08-09T14:04:01.649Z,0.40
2022-08-09T14:04:15.672Z,0.50
2022-08-09T14:05:59.479Z,0.50
2022-08-09T14:06:25.615Z,0.50
2022-08-09T14:07:15.377Z,0.50
2022-08-09T14:08:15.826Z,0.40
2022-08-09T14:09:15.350Z,0.60
2022-08-09T14:10:17.417Z,0.60
2022-08-09T14:11:16.588Z,0.50
2022-08-09T14:12:16.113Z,0.50
2022-08-09T14:13:28.283Z,0.70
2022-08-09T14:14:26.161Z,0.70
2022-08-09T14:16:06.794Z,0.50
2022-08-09T14:16:15.852Z,0.50
2022-08-09T14:17:15.200Z,0.50
2022-08-09T14:18:27.543Z,0.50
2022-08-09T14:22:19.483Z,0.60
2022-08-09T14:23:39.952Z,0.40
2022-08-09T14:24:31.969Z,0.70
2022-08-09T14:27:56.786Z,1.10
2022-08-09T14:28:02.258Z,0.50
2022-08-09T14:29:02.678Z,0.50
2022-08-09T14:30:34.687Z,0.50
2022-08-09T14:38:38.191Z,0.50
2022-08-09T14:39:47.172Z,0.60
2022-08-09T14:41:01.046Z,0.60
2022-08-09T14:41:40.296Z,0.50
2022-08-09T14:42:38.766Z,0.40
2022-08-09T14:43:47.380Z,0.50
2022-08-09T14:44:48.197Z,0.80
2022-08-09T14:56:26.811Z,0.60
2022-08-09T14:57:31.677Z,0.50
2022-08-09T15:13:04.121Z,0.50
2022-08-09T15:14:01.648Z,0.60
2022-08-09T15:14:55.285Z,0.50
2022-08-09T15:15:55.338Z,0.50
2022-08-09T15:16:55.434Z,0.60
2022-08-09T15:17:55.243Z,0.50
2022-08-09T15:19:15.952Z,0.50
2022-08-09T15:20:02.503Z,0.90
2022-08-09T15:21:58.256Z,0.70
2022-08-09T15:22:06.981Z,0.70
2022-08-09T15:23:03.101Z,0.50
2022-08-09T15:24:12.490Z,0.60
2022-08-09T15:24:55.206Z,0.50
2022-08-09T15:25:55.572Z,0.60
2022-08-09T15:26:56.150Z,0.60
2022-08-09T15:28:01.116Z,0.80
2022-08-09T15:28:55.840Z,0.60
2022-08-09T15:30:55.522Z,0.50
2022-08-09T15:31:08.724Z,0.50
2022-08-09T15:31:55.108Z,0.50
2022-08-09T15:32:55.154Z,0.50
2022-08-09T15:34:17.514Z,0.60
2022-08-09T15:34:56.429Z,0.30
2022-08-09T15:36:02.028Z,0.70
2022-08-09T15:36:55.069Z,0.50
2022-08-09T15:37:56.722Z,0.60
2022-08-09T15:39:00.099Z,0.50
2022-08-09T15:39:55.395Z,0.40
2022-08-09T15:40:55.027Z,0.70
2022-08-09T15:41:55.006Z,0.70
2022-08-09T15:42:54.967Z,0.40
2022-08-09T15:43:55.015Z,0.70
2022-08-09T15:44:54.984Z,0.50
2022-08-09T15:46:28.419Z,0.60
2022-08-09T15:46:54.966Z,0.80
2022-08-09T15:48:05.634Z,0.70
2022-08-09T15:49:20.623Z,0.50
2022-08-09T15:50:03.606Z,0.70
2022-08-09T15:50:54.917Z,0.40
2022-08-09T15:52:03.077Z,0.80
2022-08-09T16:02:54.636Z,0.40
2022-08-09T16:03:38.349Z,0.60
2022-08-09T16:04:36.441Z,0.50
2022-08-09T16:05:53.760Z,0.60
2022-08-09T16:06:37.569Z,0.60
2022-08-09T16:07:39.500Z,0.60
2022-08-09T16:08:36.394Z,0.70
2022-08-09T16:09:57.943Z,0.40
2022-08-09T16:11:04.666Z,0.60
2022-08-09T16:11:36.337Z,0.50
2022-08-09T16:12:36.749Z,0.60
2022-08-09T16:14:03.696Z,1.00
2022-08-09T16:14:36.371Z,0.40
2022-08-09T16:16:04.628Z,0.50
2022-08-09T16:16:37.294Z,0.50
2022-08-09T16:17:36.296Z,0.70
2022-08-09T16:18:36.292Z,0.80
2022-08-09T16:19:49.283Z,0.60
2022-08-09T16:20:36.487Z,0.60
2022-08-09T16:21:36.319Z,0.60
2022-08-09T16:22:36.423Z,0.60
2022-08-09T16:23:36.245Z,0.50
2022-08-09T16:24:36.252Z,0.50
2022-08-09T16:25:40.359Z,0.60
2022-08-09T16:26:36.602Z,0.80
2022-08-09T16:27:36.265Z,0.70
2022-08-09T16:28:36.183Z,0.80
2022-08-09T16:29:36.855Z,0.50
2022-08-09T16:30:36.187Z,0.60
2022-08-09T16:31:38.027Z,0.80
2022-08-09T16:32:36.144Z,0.60
2022-08-09T16:33:38.738Z,0.60
2022-08-09T16:34:55.229Z,0.70
2022-08-09T16:35:56.868Z,0.60
2022-08-09T16:36:36.230Z,0.60
2022-08-09T16:37:55.156Z,0.70
2022-08-09T16:38:36.108Z,0.50
2022-08-09T16:39:40.023Z,0.50
2022-08-09T16:40:40.720Z,0.50
2022-08-09T16:42:02.973Z,0.50
2022-08-09T16:57:14.771Z,0.50
2022-08-09T16:58:09.879Z,0.60
2022-08-09T16:58:52.522Z,0.80
2022-08-09T16:59:57.437Z,0.50
2022-08-09T17:00:52.517Z,0.50
2022-08-09T17:01:52.857Z,0.60
2022-08-09T17:02:52.462Z,0.40
2022-08-09T17:03:52.457Z,0.70
2022-08-09T17:04:52.708Z,0.70
2022-08-09T17:06:07.160Z,0.70
2022-08-09T17:08:41.483Z,0.90
2022-08-09T17:09:12.025Z,0.80
2022-08-09T17:09:45.901Z,0.50
2022-08-09T17:10:09.499Z,0.90
2022-08-09T17:11:09.495Z,0.50
2022-08-09T17:12:09.493Z,0.40
2022-08-09T17:13:16.570Z,0.70
2022-08-09T17:14:26.343Z,1.10
2022-08-09T17:15:30.628Z,0.60
2022-08-09T17:16:09.436Z,0.90
2022-08-09T17:17:23.350Z,0.60
2022-08-09T17:18:10.586Z,0.80
2022-08-09T17:19:10.505Z,0.90
2022-08-09T17:20:28.299Z,0.70
2022-08-09T17:21:09.399Z,0.60
2022-08-09T17:22:09.373Z,0.60
2022-08-09T17:23:10.389Z,0.70
2022-08-09T17:24:21.419Z,0.80
2022-08-09T17:25:10.189Z,0.70
2022-08-09T17:26:17.528Z,0.60
2022-08-09T17:27:15.145Z,0.60
2022-08-09T17:28:09.324Z,0.50
2022-08-09T17:29:11.728Z,0.70
2022-08-09T17:30:14.139Z,0.90
2022-08-09T17:31:09.292Z,0.60
2022-08-09T17:32:09.236Z,1.20
2022-08-09T17:38:39.333Z,0.60
2022-08-09T17:39:53.287Z,0.80
2022-08-09T17:40:38.740Z,0.60
2022-08-09T17:41:39.232Z,0.50
2022-08-09T17:42:41.907Z,0.80
2022-08-09T17:43:38.268Z,0.50
2022-08-09T17:44:47.290Z,0.50
2022-08-09T17:46:01.977Z,0.40
2022-08-09T17:46:37.656Z,0.80
2022-08-09T17:47:49.937Z,0.50
2022-08-09T17:48:38.666Z,0.60
2022-08-09T17:49:42.687Z,0.60
2022-08-09T17:50:37.882Z,0.70
2022-08-09T17:51:37.620Z,0.60
2022-08-09T17:52:37.599Z,0.50
2022-08-09T17:53:43.013Z,0.60
2022-08-09T17:54:37.601Z,0.50
2022-08-09T17:55:48.661Z,0.60
2022-08-09T17:58:04.048Z,0.50
2022-08-09T18:00:05.658Z,0.70
2022-08-09T18:01:00.234Z,0.70
2022-08-09T18:02:12.255Z,0.70
2022-08-09T18:03:00.213Z,0.60
2022-08-09T18:04:00.064Z,0.50
2022-08-09T18:05:00.080Z,0.60
2022-08-09T18:06:00.784Z,0.50
2022-08-09T18:07:00.074Z,0.80
2022-08-09T18:08:00.028Z,0.60
2022-08-09T18:09:00.037Z,0.70
2022-08-09T18:10:04.269Z,0.60
2022-08-09T18:11:02.189Z,0.70
2022-08-09T18:12:05.783Z,0.40
2022-08-09T18:13:40.194Z,0.40
2022-08-09T18:14:10.714Z,0.80
2022-08-09T18:18:43.161Z,0.90
2022-08-09T18:20:58.762Z,0.70
2022-08-09T18:21:22.878Z,0.90
2022-08-09T18:21:31.661Z,0.80
2022-08-09T18:22:33.985Z,0.60
2022-08-09T18:24:09.707Z,0.70
2022-08-09T18:24:31.346Z,0.40
2022-08-09T18:25:52.332Z,0.90
2022-08-09T18:26:31.359Z,0.80
2022-08-09T18:28:02.180Z,0.60
2022-08-09T18:30:42.604Z,0.70
2022-08-09T18:30:54.017Z,0.60
2022-08-09T18:30:58.893Z,0.70
2022-08-09T18:31:58.882Z,0.70
2022-08-09T18:33:12.854Z,1.00
2022-08-09T18:33:58.846Z,0.70
2022-08-09T18:34:58.820Z,0.50
2022-08-09T18:36:00.430Z,0.70
2022-08-09T18:36:58.846Z,0.60
2022-08-09T18:37:58.817Z,0.40
2022-08-09T18:39:02.072Z,0.70
2022-08-09T18:39:58.856Z,0.60
2022-08-09T18:40:58.762Z,0.60
2022-08-09T18:41:58.788Z,0.50